Time;durP1;ratioP1;P1;durP2;ratioP2;P2;SDS_P1;SDS_P2;PMS_P1;PMS_P2;Temp;Humidity;BMP_temperature;BMP_pressure;BME280_temperature;BME280_humidity;BME280_pressure;Samples;Min_cycle;Max_cycle;Signal;HPM_P1;HPM_P2
2023/02/13 00:01:10;;;;;;;91.65;54.03;;;;;;;-2.42;100.00;96493.81;5077277;28;20568;-75
2023/02/13 00:03:35;;;;;;;106.05;59.58;;;;;;;-2.33;100.00;96503.63;5077547;28;20036;-74
2023/02/13 00:06:01;;;;;;;102.68;57.15;;;;;;;-2.40;100.00;96502.16;5076140;28;20926;-75
2023/02/13 00:08:26;;;;;;;89.65;51.20;;;;;;;-2.41;100.00;96504.78;5078182;28;20077;-74
2023/02/13 00:10:52;;;;;;;84.13;48.90;;;;;;;-2.45;100.00;96499.00;5088026;28;20069;-75
2023/02/13 00:13:17;;;;;;;86.10;52.63;;;;;;;-2.42;100.00;96498.03;5062145;28;20081;-75
2023/02/13 00:15:42;;;;;;;87.28;51.60;;;;;;;-2.43;100.00;96496.38;5078699;28;20286;-75
2023/02/13 00:18:08;;;;;;;90.00;52.78;;;;;;;-2.46;100.00;96496.50;5062864;28;20033;-74
2023/02/13 00:20:33;;;;;;;89.43;54.20;;;;;;;-2.46;100.00;96502.41;5058630;28;20024;-75
2023/02/13 00:22:59;;;;;;;94.32;55.35;;;;;;;-2.53;100.00;96483.19;5073923;28;20031;-75
2023/02/13 00:25:24;;;;;;;93.32;53.97;;;;;;;-2.34;100.00;96496.03;5066865;28;20024;-74
2023/02/13 00:27:52;;;;;;;86.40;52.53;;;;;;;-2.37;100.00;96493.63;5060167;28;20167;-74
2023/02/13 00:30:20;;;;;;;87.53;51.47;;;;;;;-2.42;100.00;96505.66;5093643;28;20481;-75
2023/02/13 00:32:45;;;;;;;94.25;52.50;;;;;;;-2.29;100.00;96499.25;5081323;28;20024;-74
2023/02/13 00:35:11;;;;;;;103.80;59.83;;;;;;;-2.26;100.00;96492.38;5080710;28;20027;-74
2023/02/13 00:37:36;;;;;;;94.78;54.13;;;;;;;-2.19;100.00;96511.56;5082546;28;20387;-74
2023/02/13 00:40:02;;;;;;;93.30;52.20;;;;;;;-2.20;100.00;96509.06;5078845;28;20640;-75
2023/02/13 00:42:27;;;;;;;91.13;52.67;;;;;;;-2.19;100.00;96505.66;5064240;28;20035;-75
2023/02/13 00:44:53;;;;;;;93.43;54.67;;;;;;;-2.27;100.00;96508.47;5080054;28;20032;-75
2023/02/13 00:47:19;;;;;;;88.47;51.53;;;;;;;-2.16;100.00;96508.91;5080027;28;20048;-75
2023/02/13 00:49:45;;;;;;;89.97;52.90;;;;;;;-2.08;100.00;96512.84;5054647;28;20028;-75
2023/02/13 00:52:11;;;;;;;87.65;52.97;;;;;;;-2.08;100.00;96512.84;5075919;28;20031;-74
2023/02/13 00:54:36;;;;;;;86.70;52.25;;;;;;;-2.00;100.00;96514.25;5073663;28;20024;-75
2023/02/13 00:57:02;;;;;;;84.78;49.83;;;;;;;-2.18;100.00;96507.28;5072149;28;20576;-74
2023/02/13 00:59:27;;;;;;;91.32;54.92;;;;;;;-2.07;100.00;96512.81;5080563;28;20111;-75
2023/02/13 01:01:53;;;;;;;90.80;53.25;;;;;;;-2.08;100.00;96513.69;5079297;28;20035;-75
2023/02/13 01:04:18;;;;;;;97.22;53.90;;;;;;;-2.03;100.00;96511.00;5080078;28;20043;-75
2023/02/13 01:06:44;;;;;;;91.13;51.78;;;;;;;-2.09;100.00;96512.06;5081289;28;20024;-75
2023/02/13 01:09:09;;;;;;;91.25;53.50;;;;;;;-2.13;100.00;96511.34;5079643;28;20036;-75
2023/02/13 01:11:34;;;;;;;95.53;54.53;;;;;;;-2.13;100.00;96515.59;5094501;28;20031;-75
2023/02/13 01:14:00;;;;;;;90.10;53.20;;;;;;;-1.98;100.00;96511.66;5079354;28;20179;-74
2023/02/13 01:16:25;;;;;;;96.35;52.95;;;;;;;-1.92;100.00;96517.31;5080067;28;20064;-74
2023/02/13 01:18:51;;;;;;;131.82;72.50;;;;;;;-1.90;100.00;96518.13;5073455;28;20111;-74
2023/02/13 01:21:18;;;;;;;118.75;65.53;;;;;;;-1.80;100.00;96518.59;5073044;28;20028;-74
2023/02/13 01:23:44;;;;;;;123.18;67.97;;;;;;;-1.80;100.00;96508.44;5062098;28;20032;-74
2023/02/13 01:26:16;;;;;;;115.25;67.45;;;;;;;-1.81;100.00;96515.22;5081462;28;20063;-74
2023/02/13 01:28:41;;;;;;;136.23;79.18;;;;;;;-1.75;100.00;96516.69;5079349;28;20028;-74
2023/02/13 01:31:07;;;;;;;114.75;69.85;;;;;;;-1.72;100.00;96521.66;5078901;28;21026;-74
2023/02/13 01:33:33;;;;;;;107.60;61.80;;;;;;;-1.69;100.00;96524.91;5078529;28;20032;-74
2023/02/13 01:35:59;;;;;;;102.72;60.25;;;;;;;-1.64;100.00;96515.41;5078681;28;20196;-75
2023/02/13 01:38:24;;;;;;;93.70;54.60;;;;;;;-1.67;100.00;96519.78;5079879;28;20501;-74
2023/02/13 01:40:52;;;;;;;92.82;53.25;;;;;;;-1.68;100.00;96524.03;5078512;28;20504;-73
2023/02/13 01:43:22;;;;;;;100.68;56.05;;;;;;;-1.69;100.00;96526.63;5079869;28;20020;-73
2023/02/13 01:45:49;;;;;;;99.85;57.03;;;;;;;-1.67;100.00;96524.88;5079213;28;20027;-75
2023/02/13 01:48:23;;;;;;;101.93;58.50;;;;;;;-1.63;100.00;96524.69;5078631;28;20452;-74
2023/02/13 01:50:54;;;;;;;102.07;59.50;;;;;;;-1.60;100.00;96528.81;5079420;28;20417;-75
2023/02/13 01:53:54;;;;;;;104.30;59.97;;;;;;;-1.67;100.00;96528.22;5079749;28;20130;-74
2023/02/13 01:56:24;;;;;;;100.00;59.15;;;;;;;-1.60;100.00;96524.56;5071472;28;20070;-74
2023/02/13 01:58:53;;;;;;;105.20;59.28;;;;;;;-1.62;100.00;96515.34;5079202;28;20032;-74
2023/02/13 02:01:19;;;;;;;101.00;56.27;;;;;;;-1.55;100.00;96521.84;5072702;28;20080;-74
2023/02/13 02:03:49;;;;;;;96.40;56.42;;;;;;;-1.51;100.00;96530.19;5071072;28;20504;-74
2023/02/13 02:06:17;;;;;;;;;;;;;;;-1.56;100.00;96529.50;5058594;28;21405;-74
2023/02/13 02:08:44;;;;;;;94.53;52.92;;;;;;;-1.64;100.00;96515.41;5083680;28;19916;-74
2023/02/13 02:11:16;;;;;;;92.65;54.45;;;;;;;-1.55;100.00;96515.94;5071817;28;20031;-74
2023/02/13 02:13:44;;;;;;;94.03;53.17;;;;;;;-1.48;100.00;96517.38;5048472;28;20082;-74
2023/02/13 02:16:10;;;;;;;90.78;52.65;;;;;;;-1.46;100.00;96521.50;5078645;28;20035;-73
2023/02/13 02:18:35;;;;;;;92.95;56.20;;;;;;;-1.36;100.00;96527.03;5077580;28;20486;-77
2023/02/13 02:21:07;;;;;;;93.25;53.53;;;;;;;-1.33;100.00;96527.75;5079032;28;20115;-76
2023/02/13 02:24:16;;;;;;;108.70;59.58;;;;;;;-1.37;100.00;96531.28;5064462;28;20035;-77
2023/02/13 02:26:54;;;;;;;105.53;60.30;;;;;;;-1.31;100.00;96530.22;5078679;28;20031;-74
2023/02/13 02:29:40;;;;;;;115.55;59.85;;;;;;;-1.34;100.00;96532.88;5078611;28;20032;-74
2023/02/13 02:32:33;;;;;;;107.50;61.67;;;;;;;-1.32;100.00;96536.22;5078858;28;20032;-74
2023/02/13 02:35:21;;;;;;;107.43;59.85;;;;;;;-1.28;100.00;96537.72;5079138;28;20027;-77
2023/02/13 02:38:18;;;;;;;100.75;58.40;;;;;;;-1.23;100.00;96536.66;5057648;28;20520;-76
2023/02/13 02:41:40;;;;;;;101.60;58.72;;;;;;;-1.15;100.00;96538.88;5078419;28;20069;-76
2023/02/13 02:44:31;;;;;;;108.72;63.72;;;;;;;-1.11;100.00;96543.81;5079545;28;20032;-77
2023/02/13 02:50:10;;;;;;;162.85;76.55;;;;;;;-1.10;100.00;96554.81;5078554;28;20905;-76
2023/02/13 02:53:05;;;;;;;148.68;74.20;;;;;;;-1.23;100.00;96538.38;5078394;28;20024;-76
2023/02/13 02:55:49;;;;;;;156.25;76.72;;;;;;;-1.12;100.00;96548.94;5079767;28;20035;-76
2023/02/13 03:06:55;;;;;;;117.10;61.60;;;;;;;-1.06;100.00;96549.50;5077255;28;20027;-77
2023/02/13 03:15:04;;;;;;;100.68;57.78;;;;;;;-1.09;100.00;96549.63;5076907;28;20110;-76
2023/02/13 03:23:14;;;;;;;110.65;59.55;;;;;;;-0.92;100.00;96551.50;5078986;28;20051;-76
2023/02/13 03:25:49;;;;;;;102.40;60.50;;;;;;;-0.89;100.00;96566.63;5078068;28;20846;-76
2023/02/13 03:31:38;;;;;;;116.85;65.18;;;;;;;-0.83;100.00;96560.47;5079920;28;20089;-77
2023/02/13 03:34:06;;;;;;;113.07;62.47;;;;;;;-0.82;100.00;96552.78;5076984;28;20085;-77
2023/02/13 03:39:39;;;;;;;109.65;61.60;;;;;;;-0.78;100.00;96550.97;5079181;28;20051;-76
2023/02/13 03:42:10;;;;;;;100.65;58.00;;;;;;;-0.79;100.00;96552.66;5077369;28;20043;-77
2023/02/13 03:44:41;;;;;;;102.57;57.38;;;;;;;-0.81;100.00;96556.16;5077491;28;20047;-75
2023/02/13 03:47:08;;;;;;;98.13;56.50;;;;;;;-0.79;100.00;96559.47;5076817;28;20044;-76
2023/02/13 03:50:05;;;;;;;110.03;62.28;;;;;;;-0.80;100.00;96556.09;5076414;28;20052;-76
2023/02/13 03:52:35;;;;;;;120.65;64.15;;;;;;;-0.79;100.00;96557.75;5078059;28;20493;-76
2023/02/13 04:00:54;;;;;;;105.38;60.17;;;;;;;-0.71;100.00;96558.28;5074019;28;20147;-75
2023/02/13 04:03:36;;;;;;;113.07;60.83;;;;;;;-0.66;100.00;96558.06;5077632;28;20618;-75
2023/02/13 04:06:31;;;;;;;108.28;60.25;;;;;;;-0.61;100.00;96569.72;5086824;28;20024;-76
2023/02/13 04:08:57;;;;;;;109.53;59.97;;;;;;;-0.50;100.00;96558.25;5076901;28;20067;-76
2023/02/13 04:11:32;;;;;;;109.63;57.80;;;;;;;-0.53;100.00;96561.78;5091615;28;20070;-74
2023/02/13 04:14:06;;;;;;;108.25;58.72;;;;;;;-0.59;100.00;96555.22;5077267;28;20016;-76
2023/02/13 04:16:45;;;;;;;104.82;58.22;;;;;;;-0.58;100.00;96559.41;5057764;28;20029;-76
2023/02/13 04:19:11;;;;;;;109.63;60.75;;;;;;;-0.57;100.00;96555.97;5067403;28;20870;-75
2023/02/13 04:21:39;;;;;;;108.57;60.17;;;;;;;-0.49;100.00;96570.09;5071799;28;20097;-75
2023/02/13 04:24:05;;;;;;;109.88;59.90;;;;;;;-0.50;100.00;96559.09;5075894;28;20075;-76
2023/02/13 04:26:42;;;;;;;101.00;55.50;;;;;;;-0.46;100.00;96567.44;5077113;28;20028;-76
2023/02/13 04:29:08;;;;;;;96.43;52.22;;;;;;;-0.39;100.00;96571.38;5074983;28;20028;-75
2023/02/13 04:31:33;;;;;;;98.38;52.53;;;;;;;-0.46;100.00;96558.09;5064089;28;20557;-75
2023/02/13 04:33:59;;;;;;;92.10;50.85;;;;;;;-0.50;100.00;96570.97;5076001;28;20035;-75
2023/02/13 04:36:24;;;;;;;89.80;49.42;;;;;;;-0.40;100.00;96564.63;5077219;28;20056;-75
2023/02/13 04:38:50;;;;;;;90.47;49.05;;;;;;;-0.39;100.00;96561.19;5059254;28;20043;-75
2023/02/13 04:41:16;;;;;;;88.95;48.47;;;;;;;-0.40;100.00;96559.53;5075693;28;20031;-75
2023/02/13 04:43:41;;;;;;;94.57;48.47;;;;;;;-0.37;100.00;96564.50;5078302;28;20411;-76
2023/02/13 04:46:07;;;;;;;89.13;47.00;;;;;;;-0.38;100.00;96565.38;5075874;28;20035;-75
2023/02/13 04:48:32;;;;;;;89.35;47.17;;;;;;;-0.41;100.00;96562.97;5078388;28;20043;-76
2023/02/13 04:50:58;;;;;;;83.90;46.80;;;;;;;-0.40;100.00;96574.81;5070391;28;20028;-76
2023/02/13 04:53:23;;;;;;;85.53;46.45;;;;;;;-0.39;100.00;96577.28;5067713;28;20619;-76
2023/02/13 04:55:48;;;;;;;88.43;47.75;;;;;;;-0.42;100.00;96574.88;5072878;28;20028;-75
2023/02/13 04:58:14;;;;;;;92.53;49.83;;;;;;;-0.42;100.00;96576.59;5064716;28;20047;-75
2023/02/13 05:00:39;;;;;;;120.43;63.70;;;;;;;-0.42;100.00;96572.34;5057133;28;20032;-75
2023/02/13 05:03:07;;;;;;;104.72;54.83;;;;;;;-0.42;100.00;96577.44;5077198;28;20044;-75
2023/02/13 05:05:32;;;;;;;101.15;54.10;;;;;;;-0.48;100.00;96575.13;5076652;28;20524;-76
2023/02/13 05:07:58;;;;;;;86.95;48.75;;;;;;;-0.48;100.00;96571.75;5077575;28;20020;-75
2023/02/13 05:10:24;;;;;;;84.53;48.53;;;;;;;-0.48;100.00;96574.31;5088206;28;20413;-76
2023/02/13 05:12:50;;;;;;;83.53;45.72;;;;;;;-0.55;100.00;96577.06;5086509;28;20406;-75
2023/02/13 05:15:15;;;;;;;78.32;44.05;;;;;;;-0.55;100.00;96582.16;5079756;28;20031;-76
2023/02/13 05:17:45;;;;;;;88.45;47.38;;;;;;;-0.49;100.00;96586.19;5079660;28;20035;-75
2023/02/13 05:20:11;;;;;;;104.32;57.00;;;;;;;-0.51;100.00;96582.06;5078988;28;20470;-75
2023/02/13 05:25:21;;;;;;;85.68;46.65;;;;;;;-0.51;100.00;96589.69;5078771;28;20066;-76
2023/02/13 05:27:46;;;;;;;80.70;44.08;;;;;;;-0.46;100.00;96592.88;5079845;28;20051;-75
2023/02/13 05:30:12;;;;;;;77.18;43.47;;;;;;;-0.50;100.00;96588.78;5078301;28;20024;-76
2023/02/13 05:32:38;;;;;;;88.47;47.22;;;;;;;-0.47;100.00;96588.66;5081760;28;20111;-76
2023/02/13 05:35:04;;;;;;;105.78;53.58;;;;;;;-0.47;100.00;96594.59;5058038;28;20568;-75
2023/02/13 05:37:30;;;;;;;112.75;57.65;;;;;;;-0.46;100.00;96597.97;5079397;28;20081;-76
2023/02/13 05:39:55;;;;;;;83.70;48.13;;;;;;;-0.47;100.00;96603.94;5079563;28;20020;-76
2023/02/13 05:42:21;;;;;;;83.80;46.47;;;;;;;-0.40;100.00;96606.16;5078457;28;20020;-75
2023/02/13 05:44:46;;;;;;;89.20;49.42;;;;;;;-0.45;100.00;96600.41;5081698;28;20103;-75
2023/02/13 05:47:12;;;;;;;99.15;56.90;;;;;;;-0.40;100.00;96605.34;5059765;28;20094;-76
2023/02/13 05:49:37;;;;;;;88.75;49.95;;;;;;;-0.36;100.00;96614.50;5079861;28;20038;-75
2023/02/13 05:52:03;;;;;;;83.93;46.80;;;;;;;-0.36;100.00;96611.97;5061831;28;20046;-75
2023/02/13 05:54:28;;;;;;;85.50;46.33;;;;;;;-0.26;100.00;96614.06;5078840;28;20054;-75
2023/02/13 05:56:53;;;;;;;81.90;46.88;;;;;;;-0.34;100.00;96615.25;5080423;28;20119;-76
2023/02/13 05:59:19;;;;;;;94.03;48.45;;;;;;;-0.30;100.00;96611.69;5093146;28;20031;-75
2023/02/13 06:01:44;;;;;;;90.53;48.00;;;;;;;-0.28;100.00;96609.91;5079750;28;20027;-75
2023/02/13 06:04:10;;;;;;;90.43;48.95;;;;;;;-0.19;100.00;96614.59;5077522;28;20342;-75
2023/02/13 06:06:35;;;;;;;92.10;49.72;;;;;;;-0.21;100.00;96614.69;5059279;28;20054;-75
2023/02/13 06:09:01;;;;;;;90.93;50.45;;;;;;;-0.25;100.00;96614.88;5077671;28;20039;-75
2023/02/13 06:11:26;;;;;;;94.22;50.63;;;;;;;-0.16;100.00;96617.06;5094993;28;20102;-75
2023/02/13 06:13:51;;;;;;;86.63;50.40;;;;;;;-0.07;100.00;96619.19;5080846;28;20024;-75
2023/02/13 06:16:17;;;;;;;93.85;51.97;;;;;;;-0.06;100.00;96631.84;5099020;28;20024;-75
2023/02/13 06:18:42;;;;;;;87.60;48.40;;;;;;;-0.05;100.00;96625.88;5092505;27;20123;-75
2023/02/13 06:21:08;;;;;;;107.80;53.78;;;;;;;-0.03;100.00;96620.69;5077946;28;20047;-75
2023/02/13 06:23:33;;;;;;;110.57;55.78;;;;;;;-0.04;100.00;96625.00;5079801;28;20029;-75
2023/02/13 06:26:06;;;;;;;99.28;51.30;;;;;;;0.04;100.00;96629.75;5077725;28;20040;-75
2023/02/13 06:28:32;;;;;;;115.10;58.67;;;;;;;0.03;100.00;96629.81;5078916;28;20102;-75
2023/02/13 06:30:58;;;;;;;97.07;53.15;;;;;;;0.04;100.00;96634.81;5063328;28;20134;-75
2023/02/13 06:33:24;;;;;;;90.93;49.28;;;;;;;0.06;100.00;96638.16;5087625;28;20062;-76
2023/02/13 06:35:49;;;;;;;86.43;48.97;;;;;;;0.12;100.00;96635.34;5097991;28;20536;-75
2023/02/13 06:38:17;;;;;;;79.80;45.88;;;;;;;0.09;100.00;96632.94;5095651;28;20088;-75
2023/02/13 06:40:44;;;;;;;82.10;45.50;;;;;;;0.17;100.00;96628.31;5096732;28;20728;-75
2023/02/13 06:43:10;;;;;;;83.63;47.40;;;;;;;0.25;100.00;96631.38;5076805;28;20032;-75
2023/02/13 06:45:36;;;;;;;91.97;47.35;;;;;;;0.40;100.00;96630.69;5098054;28;20101;-75
2023/02/13 06:48:01;;;;;;;86.45;47.75;;;;;;;0.37;100.00;96632.53;5095746;28;20052;-75
2023/02/13 06:50:27;;;;;;;87.47;46.63;;;;;;;0.48;100.00;96622.72;5089254;28;20051;-75
2023/02/13 06:52:52;;;;;;;89.18;46.63;;;;;;;0.53;100.00;96624.16;5042531;28;20056;-75
2023/02/13 06:55:19;;;;;;;90.55;49.40;;;;;;;0.62;100.00;96633.09;5060403;28;20928;-74
2023/02/13 06:57:45;;;;;;;89.68;50.45;;;;;;;0.66;100.00;96633.81;5078202;28;20032;-74
2023/02/13 07:00:12;;;;;;;91.13;50.08;;;;;;;0.65;100.00;96629.59;5056775;28;20869;-74
2023/02/13 07:02:39;;;;;;;86.97;48.92;;;;;;;0.63;100.00;96626.28;5078367;28;20020;-74
2023/02/13 07:05:05;;;;;;;81.65;48.28;;;;;;;0.52;100.00;96622.50;5081297;28;20070;-75
2023/02/13 07:07:34;;;;;;;83.95;45.00;;;;;;;0.63;100.00;96624.56;5097495;28;20024;-75
2023/02/13 07:10:00;;;;;;;81.65;45.70;;;;;;;0.75;100.00;96623.19;5081193;28;20444;-75
2023/02/13 07:12:25;;;;;;;77.50;44.30;;;;;;;0.91;100.00;96627.50;5078976;28;20032;-74
2023/02/13 07:14:50;;;;;;;81.40;46.72;;;;;;;0.95;100.00;96629.03;5077828;28;20123;-75
2023/02/13 07:17:16;;;;;;;78.60;46.10;;;;;;;0.95;100.00;96630.75;5079011;28;20519;-74
2023/02/13 07:19:41;;;;;;;79.75;46.85;;;;;;;1.03;100.00;96628.66;5077425;28;20035;-75
2023/02/13 07:22:07;;;;;;;85.63;46.80;;;;;;;1.10;100.00;96634.31;5074797;28;20016;-74
2023/02/13 07:24:34;;;;;;;74.78;44.67;;;;;;;1.16;100.00;96634.84;5065548;28;20346;-74
2023/02/13 07:27:00;;;;;;;81.30;46.58;;;;;;;1.19;100.00;96637.25;5084966;28;20024;-75
2023/02/13 07:29:26;;;;;;;89.63;52.53;;;;;;;1.09;100.00;96640.31;5067564;28;20046;-75
2023/02/13 07:31:52;;;;;;;91.70;52.92;;;;;;;1.11;100.00;96633.41;5095399;28;20039;-75
2023/02/13 07:34:17;;;;;;;90.32;52.53;;;;;;;1.20;100.00;96644.00;5095714;28;20027;-74
2023/02/13 07:36:43;;;;;;;88.20;50.28;;;;;;;1.20;100.00;96638.91;5093641;28;20054;-74
2023/02/13 07:39:08;;;;;;;87.60;51.70;;;;;;;1.23;100.00;96643.03;5065302;28;20024;-75
2023/02/13 07:41:33;;;;;;;88.35;52.72;;;;;;;1.27;100.00;96642.00;5085821;28;20666;-74
2023/02/13 07:43:59;;;;;;;93.28;54.92;;;;;;;1.22;100.00;96637.09;5094299;28;20356;-75
2023/02/13 07:46:24;;;;;;;94.30;55.25;;;;;;;1.33;100.00;96629.78;5097910;28;20509;-74
2023/02/13 07:48:53;;;;;;;92.82;53.97;;;;;;;1.49;100.00;96629.88;5092805;28;20039;-75
2023/02/13 07:51:24;;;;;;;95.53;53.83;;;;;;;1.51;100.00;96636.53;5096374;28;20040;-74
2023/02/13 07:53:49;;;;;;;90.57;53.50;;;;;;;1.43;100.00;96631.00;5069918;28;20029;-74
2023/02/13 07:56:15;;;;;;;92.00;53.75;;;;;;;1.61;100.00;96638.66;5075283;28;20035;-75
2023/02/13 07:58:40;;;;;;;94.43;54.92;;;;;;;1.76;100.00;96640.47;5070882;28;20030;-75
2023/02/13 08:01:08;;;;;;;90.32;52.97;;;;;;;1.81;100.00;96628.28;5093413;28;20039;-75
2023/02/13 08:03:33;;;;;;;98.13;54.90;;;;;;;1.48;100.00;96625.66;5082414;28;20542;-75
2023/02/13 08:05:59;;;;;;;92.28;53.58;;;;;;;1.76;100.00;96637.91;5077700;28;20024;-75
2023/02/13 08:08:24;;;;;;;96.60;53.15;;;;;;;1.97;100.00;96631.72;5069861;28;20020;-75
2023/02/13 08:13:33;;;;;;;92.95;53.88;;;;;;;2.10;100.00;96635.31;5086066;28;20047;-75
2023/02/13 08:15:59;;;;;;;88.18;52.10;;;;;;;2.20;100.00;96628.84;5079205;28;20020;-75
2023/02/13 08:18:24;;;;;;;91.25;53.30;;;;;;;2.04;100.00;96617.75;5073471;28;20032;-75
2023/02/13 08:20:50;;;;;;;93.45;52.67;;;;;;;2.10;100.00;96627.66;5074258;28;20032;-75
2023/02/13 08:23:15;;;;;;;92.15;53.67;;;;;;;2.32;100.00;96623.09;5057627;28;20027;-74
2023/02/13 08:25:41;;;;;;;87.82;50.42;;;;;;;2.53;100.00;96628.84;5060717;28;20047;-75
2023/02/13 08:28:06;;;;;;;90.28;52.47;;;;;;;2.25;100.00;96631.97;5077703;28;20044;-75
2023/02/13 08:30:31;;;;;;;91.15;52.65;;;;;;;2.63;100.00;96633.38;5077314;28;20036;-75
2023/02/13 08:32:57;;;;;;;94.70;55.03;;;;;;;2.56;100.00;96626.94;5076108;28;20533;-75
2023/02/13 08:35:25;;;;;;;81.85;50.55;;;;;;;2.59;100.00;96626.78;5071116;28;20074;-75
2023/02/13 08:37:54;;;;;;;86.45;51.40;;;;;;;2.90;100.00;96635.38;5075265;28;20028;-73
2023/02/13 08:40:19;;;;;;;84.80;51.17;;;;;;;2.89;100.00;96629.41;5057214;28;20031;-76
2023/02/13 08:42:45;;;;;;;82.95;49.90;;;;;;;2.89;100.00;96624.31;5079152;28;20040;-76
2023/02/13 08:45:10;;;;;;;81.85;49.30;;;;;;;3.02;100.00;96632.13;5079685;28;20085;-75
2023/02/13 08:47:36;;;;;;;85.45;50.97;;;;;;;3.17;100.00;96628.75;5061003;28;20044;-75
2023/02/13 08:50:02;;;;;;;85.55;52.33;;;;;;;3.13;100.00;96627.28;5081353;28;20036;-75
2023/02/13 08:52:28;;;;;;;79.63;50.05;;;;;;;3.20;100.00;96623.47;5097194;28;20041;-75
2023/02/13 08:54:53;;;;;;;86.30;53.30;;;;;;;3.08;100.00;96621.59;5098685;28;20020;-75
2023/02/13 08:57:19;;;;;;;83.88;50.35;;;;;;;3.24;100.00;96622.41;5097229;28;20107;-74
2023/02/13 08:59:44;;;;;;;81.18;51.30;;;;;;;3.25;100.00;96616.34;5099748;28;20122;-75
2023/02/13 09:02:11;;;;;;;84.53;52.40;;;;;;;3.43;100.00;96620.47;5080136;28;20030;-75
2023/02/13 09:04:36;;;;;;;82.25;50.63;;;;;;;3.64;100.00;96619.25;5098411;28;20539;-75
2023/02/13 09:07:01;;;;;;;85.57;53.45;;;;;;;4.72;100.00;96611.06;5097331;28;20495;-75
2023/02/13 09:09:27;;;;;;;81.40;52.55;;;;;;;5.83;93.65;96616.84;5097100;28;20028;-75
2023/02/13 09:11:55;;;;;;;81.30;52.40;;;;;;;5.91;91.30;96611.22;5096471;28;20043;-75
2023/02/13 09:14:20;;;;;;;85.45;52.97;;;;;;;5.25;92.70;96609.47;5079683;28;20047;-75
2023/02/13 09:16:46;;;;;;;84.97;54.95;;;;;;;4.83;95.06;96617.28;5088738;28;20532;-76
2023/02/13 09:19:11;;;;;;;87.13;54.40;;;;;;;4.31;97.49;96619.63;5083114;28;20075;-75
2023/02/13 09:21:36;;;;;;;79.35;51.58;;;;;;;4.36;98.47;96617.63;5061859;28;20085;-75
2023/02/13 09:24:06;;;;;;;83.80;54.13;;;;;;;4.00;99.34;96611.19;5055712;28;20031;-75
2023/02/13 09:26:31;;;;;;;88.38;53.95;;;;;;;4.23;100.00;96617.53;5064370;28;20034;-75
2023/02/13 09:28:57;;;;;;;84.13;53.78;;;;;;;4.23;99.57;96615.78;5050783;28;20103;-75
2023/02/13 09:31:22;;;;;;;77.28;50.85;;;;;;;3.96;99.51;96607.13;5059565;28;20043;-76
2023/02/13 09:33:49;;;;;;;77.90;48.22;;;;;;;3.73;100.00;96607.63;5080116;28;20023;-76
2023/02/13 09:36:18;;;;;;;80.13;46.88;;;;;;;3.94;99.16;96605.59;5078338;28;20124;-75
2023/02/13 09:38:46;;;;;;;76.97;47.70;;;;;;;3.46;99.95;96609.22;5079354;28;20106;-75
2023/02/13 09:41:38;;;;;;;80.65;48.97;;;;;;;3.68;100.00;96607.09;5096517;28;20035;-75
2023/02/13 09:44:32;;;;;;;79.85;49.17;;;;;;;3.79;99.89;96596.25;5077077;28;20056;-75
2023/02/13 09:47:00;;;;;;;78.63;49.38;;;;;;;4.04;99.07;96599.00;5079465;28;20101;-75
2023/02/13 09:49:27;;;;;;;82.30;50.05;;;;;;;4.01;99.35;96591.50;5076478;28;20044;-75
2023/02/13 09:51:55;;;;;;;80.32;49.70;;;;;;;4.22;98.74;96590.22;5078925;28;20029;-75
2023/02/13 09:54:21;;;;;;;79.13;47.92;;;;;;;3.87;99.00;96584.63;5075438;28;20027;-76
2023/02/13 09:56:59;;;;;;;81.22;50.28;;;;;;;3.93;99.58;96580.88;5079190;28;20043;-75
2023/02/13 09:59:55;;;;;;;75.70;48.93;;;;;;;3.92;99.19;96580.03;5079248;28;20031;-75
2023/02/13 10:02:24;;;;;;;76.68;48.08;;;;;;;4.81;96.23;96580.66;5078484;28;20266;-75
2023/02/13 10:05:02;;;;;;;74.95;47.03;;;;;;;5.41;93.27;96574.19;5078043;28;20024;-76
2023/02/13 10:07:43;;;;;;;73.50;46.40;;;;;;;5.32;91.51;96570.47;5074801;28;20475;-75
2023/02/13 10:10:19;;;;;;;71.93;45.47;;;;;;;5.49;91.42;96571.94;5077798;28;20028;-75
2023/02/13 10:12:50;;;;;;;69.18;42.70;;;;;;;4.90;94.72;96569.81;5080058;28;20834;-76
2023/02/13 10:15:30;;;;;;;68.15;44.10;;;;;;;5.14;93.49;96561.38;5078489;28;20032;-76
2023/02/13 10:17:58;;;;;;;69.40;44.08;;;;;;;4.32;95.25;96564.84;5080718;28;20032;-75
2023/02/13 10:20:33;;;;;;;69.25;41.83;;;;;;;5.40;93.29;96564.00;5077921;28;20081;-76
2023/02/13 10:23:07;;;;;;;69.20;44.05;;;;;;;6.30;87.56;96550.22;5077334;28;20063;-76
2023/02/13 10:25:45;;;;;;;67.25;41.67;;;;;;;6.38;85.52;96541.97;5075573;28;20821;-75
2023/02/13 10:28:14;;;;;;;68.82;44.97;;;;;;;6.65;84.47;96539.22;5071095;28;20036;-76
2023/02/13 10:30:55;;;;;;;68.68;44.65;;;;;;;6.28;85.77;96535.81;5083596;28;20421;-75
2023/02/13 10:33:42;;;;;;;68.68;44.47;;;;;;;6.81;83.85;96529.50;5084784;28;20462;-76
2023/02/13 10:36:33;;;;;;;68.75;44.55;;;;;;;6.73;81.88;96526.66;5093063;28;20397;-76
2023/02/13 10:39:20;;;;;;;63.70;41.95;;;;;;;5.82;85.32;96528.59;5069846;28;20044;-75
2023/02/13 10:41:53;;;;;;;65.00;43.25;;;;;;;5.95;86.83;96522.66;5077745;28;20024;-76
2023/02/13 10:44:21;;;;;;;67.47;43.28;;;;;;;6.48;83.73;96521.59;5090525;28;20046;-75
2023/02/13 10:46:49;;;;;;;66.38;44.80;;;;;;;6.65;83.20;96509.16;5089142;28;20681;-75
2023/02/13 10:49:36;;;;;;;65.47;42.67;;;;;;;6.81;82.70;96511.47;5071953;28;20119;-75
2023/02/13 10:52:22;;;;;;;67.70;44.03;;;;;;;6.71;83.00;96507.94;5069519;28;20032;-75
2023/02/13 10:55:06;;;;;;;68.07;45.08;;;;;;;6.85;83.05;96511.16;5065379;28;20032;-75
2023/02/13 10:57:53;;;;;;;67.70;46.22;;;;;;;5.94;87.39;96500.47;5087822;28;20050;-75
2023/02/13 11:00:33;;;;;;;71.53;46.50;;;;;;;5.95;87.68;96494.38;5078269;28;20485;-75
2023/02/13 11:02:59;;;;;;;75.60;47.60;;;;;;;6.59;84.80;96498.47;5074423;28;20027;-75
2023/02/13 11:05:30;;;;;;;74.43;47.60;;;;;;;6.78;82.60;96489.34;5071646;28;20028;-75
2023/02/13 11:07:56;;;;;;;73.75;49.13;;;;;;;6.98;83.60;96484.53;5077703;28;20548;-75
2023/02/13 11:10:24;;;;;;;78.47;51.42;;;;;;;7.33;83.54;96480.19;5085767;28;20126;-75
2023/02/13 11:12:50;;;;;;;71.40;48.03;;;;;;;7.46;81.39;96475.78;5067980;28;20024;-75
2023/02/13 11:15:22;;;;;;;71.88;45.80;;;;;;;7.41;83.33;96471.00;5096294;28;20031;-75
2023/02/13 11:17:48;;;;;;;76.07;50.88;;;;;;;7.04;83.64;96473.78;5098159;28;20844;-75
2023/02/13 11:20:34;;;;;;;72.68;48.30;;;;;;;6.69;83.69;96466.84;5076773;28;20032;-75
2023/02/13 11:23:22;;;;;;;73.30;48.03;;;;;;;6.72;83.36;96470.94;5057760;28;20036;-75
2023/02/13 11:25:57;;;;;;;79.38;48.72;;;;;;;6.55;84.30;96461.03;5057846;28;20051;-75
2023/02/13 11:28:23;;;;;;;76.25;49.33;;;;;;;6.52;84.15;96454.34;5076444;28;20028;-75
2023/02/13 11:30:48;;;;;;;72.72;47.80;;;;;;;6.74;83.69;96462.16;5076104;28;20066;-75
2023/02/13 11:33:16;;;;;;;73.82;48.05;;;;;;;6.67;83.26;96450.69;5067115;28;20021;-75
2023/02/13 11:35:43;;;;;;;74.93;48.65;;;;;;;6.08;85.06;96443.78;5074391;28;20110;-75
2023/02/13 11:38:14;;;;;;;74.47;47.55;;;;;;;6.38;86.15;96441.66;5081404;28;20036;-76
2023/02/13 11:41:05;;;;;;;74.07;47.53;;;;;;;6.55;85.68;96436.09;5068249;28;20544;-75
2023/02/13 11:43:35;;;;;;;74.68;48.08;;;;;;;6.15;85.07;96432.97;5071579;28;20130;-75
2023/02/13 11:46:08;;;;;;;72.30;46.85;;;;;;;6.50;84.40;96434.78;5080249;28;20496;-74
2023/02/13 11:48:33;;;;;;;80.65;50.65;;;;;;;6.55;84.04;96433.53;5088443;28;20040;-75
2023/02/13 11:51:02;;;;;;;78.00;50.15;;;;;;;6.43;83.31;96421.53;5077044;28;20417;-75
2023/02/13 11:53:31;;;;;;;78.07;50.15;;;;;;;6.35;84.55;96418.72;5074972;28;20117;-75
2023/02/13 11:56:05;;;;;;;78.90;48.30;;;;;;;6.18;86.19;96407.03;5057369;28;20178;-75
2023/02/13 11:58:30;;;;;;;76.75;48.17;;;;;;;5.91;87.50;96403.78;5086945;28;20074;-75
2023/02/13 12:01:21;;;;;;;82.82;49.47;;;;;;;6.52;85.06;96400.28;5074130;28;20055;-75
2023/02/13 12:04:16;;;;;;;74.25;50.00;;;;;;;6.64;83.66;96398.63;5086085;28;20520;-75
2023/02/13 12:07:12;;;;;;;75.93;47.75;;;;;;;6.24;83.81;96396.31;5076902;28;20502;-76